sensor_id;sensor_type;location;lat;lon;timestamp;P1;P2;P0
32503;PMS5003;18953;45.930;13.640;2023-06-14T00:02:04;12;11;
32503;PMS5003;18953;45.930;13.640;2023-06-14T00:07:22;11;11;
32503;PMS5003;18953;45.930;13.640;2023-06-14T00:12:37;11;10;
32503;PMS5003;18953;45.930;13.640;2023-06-14T00:17:53;11;11;
32503;PMS5003;18953;45.930;13.640;2023-06-14T00:23:10;11;10;
32503;PMS5003;18953;45.930;13.640;2023-06-14T00:28:26;9;9;
32503;PMS5003;18953;45.930;13.640;2023-06-14T00:33:42;12;11;
32503;PMS5003;18953;45.930;13.640;2023-06-14T00:38:59;12;12;
32503;PMS5003;18953;45.930;13.640;2023-06-14T00:44:15;13;12;
32503;PMS5003;18953;45.930;13.640;2023-06-14T00:49:32;11;10;
32503;PMS5003;18953;45.930;13.640;2023-06-14T00:54:48;10;10;
32503;PMS5003;18953;45.930;13.640;2023-06-14T01:00:04;12;11;
32503;PMS5003;18953;45.930;13.640;2023-06-14T01:05:21;12;11;
32503;PMS5003;18953;45.930;13.640;2023-06-14T01:10:39;12;10;
32503;PMS5003;18953;45.930;13.640;2023-06-14T01:15:53;12;12;
32503;PMS5003;18953;45.930;13.640;2023-06-14T01:21:19;12;11;
32503;PMS5003;18953;45.930;13.640;2023-06-14T01:26:26;11;10;
32503;PMS5003;18953;45.930;13.640;2023-06-14T01:31:42;11;11;
32503;PMS5003;18953;45.930;13.640;2023-06-14T01:36:59;11;11;
32503;PMS5003;18953;45.930;13.640;2023-06-14T01:42:15;10;9;
32503;PMS5003;18953;45.930;13.640;2023-06-14T01:47:31;13;11;
32503;PMS5003;18953;45.930;13.640;2023-06-14T01:52:48;12;12;
32503;PMS5003;18953;45.930;13.640;2023-06-14T01:58:04;11;11;
32503;PMS5003;18953;45.930;13.640;2023-06-14T02:03:20;12;11;
32503;PMS5003;18953;45.930;13.640;2023-06-14T02:08:37;12;10;
32503;PMS5003;18953;45.930;13.640;2023-06-14T02:13:53;8;8;
32503;PMS5003;18953;45.930;13.640;2023-06-14T02:19:09;12;12;
32503;PMS5003;18953;45.930;13.640;2023-06-14T02:24:26;9;8;
32503;PMS5003;18953;45.930;13.640;2023-06-14T02:29:42;10;9;
32503;PMS5003;18953;45.930;13.640;2023-06-14T02:34:58;10;9;
32503;PMS5003;18953;45.930;13.640;2023-06-14T02:40:15;8;8;
32503;PMS5003;18953;45.930;13.640;2023-06-14T02:45:31;9;8;
32503;PMS5003;18953;45.930;13.640;2023-06-14T02:50:48;11;11;
32503;PMS5003;18953;45.930;13.640;2023-06-14T02:56:05;10;10;
32503;PMS5003;18953;45.930;13.640;2023-06-14T03:01:21;10;9;
32503;PMS5003;18953;45.930;13.640;2023-06-14T03:06:38;12;10;
32503;PMS5003;18953;45.930;13.640;2023-06-14T03:11:54;11;10;
32503;PMS5003;18953;45.930;13.640;2023-06-14T03:17:10;9;9;
32503;PMS5003;18953;45.930;13.640;2023-06-14T03:22:27;10;10;
32503;PMS5003;18953;45.930;13.640;2023-06-14T03:27:43;13;12;
32503;PMS5003;18953;45.930;13.640;2023-06-14T03:32:59;10;10;
32503;PMS5003;18953;45.930;13.640;2023-06-14T03:38:16;11;9;
32503;PMS5003;18953;45.930;13.640;2023-06-14T03:43:32;8;8;
32503;PMS5003;18953;45.930;13.640;2023-06-14T03:48:48;9;8;
32503;PMS5003;18953;45.930;13.640;2023-06-14T03:54:05;9;9;
32503;PMS5003;18953;45.930;13.640;2023-06-14T03:59:21;12;9;
32503;PMS5003;18953;45.930;13.640;2023-06-14T04:04:37;12;11;
32503;PMS5003;18953;45.930;13.640;2023-06-14T04:09:54;10;9;
32503;PMS5003;18953;45.930;13.640;2023-06-14T04:15:10;10;10;
32503;PMS5003;18953;45.930;13.640;2023-06-14T04:20:26;10;10;
32503;PMS5003;18953;45.930;13.640;2023-06-14T04:25:43;12;12;
32503;PMS5003;18953;45.930;13.640;2023-06-14T04:30:59;12;11;
32503;PMS5003;18953;45.930;13.640;2023-06-14T04:36:16;10;10;
32503;PMS5003;18953;45.930;13.640;2023-06-14T04:41:32;10;9;
32503;PMS5003;18953;45.930;13.640;2023-06-14T04:46:48;12;12;
32503;PMS5003;18953;45.930;13.640;2023-06-14T04:52:05;11;11;
32503;PMS5003;18953;45.930;13.640;2023-06-14T04:57:21;14;13;
32503;PMS5003;18953;45.930;13.640;2023-06-14T05:02:38;14;14;
32503;PMS5003;18953;45.930;13.640;2023-06-14T05:07:54;10;10;
32503;PMS5003;18953;45.930;13.640;2023-06-14T05:13:10;12;10;
32503;PMS5003;18953;45.930;13.640;2023-06-14T05:18:27;28;25;
32503;PMS5003;18953;45.930;13.640;2023-06-14T05:23:43;10;10;
32503;PMS5003;18953;45.930;13.640;2023-06-14T05:28:59;9;9;
32503;PMS5003;18953;45.930;13.640;2023-06-14T05:34:16;12;10;
32503;PMS5003;18953;45.930;13.640;2023-06-14T05:39:32;8;8;
32503;PMS5003;18953;45.930;13.640;2023-06-14T05:44:48;34;31;
32503;PMS5003;18953;45.930;13.640;2023-06-14T05:50:05;9;9;
32503;PMS5003;18953;45.930;13.640;2023-06-14T05:55:21;9;9;
32503;PMS5003;18953;45.930;13.640;2023-06-14T06:00:37;8;7;
32503;PMS5003;18953;45.930;13.640;2023-06-14T06:05:54;9;9;
32503;PMS5003;18953;45.930;13.640;2023-06-14T06:11:10;8;8;
32503;PMS5003;18953;45.930;13.640;2023-06-14T06:16:27;8;7;
32503;PMS5003;18953;45.930;13.640;2023-06-14T06:21:43;10;8;
32503;PMS5003;18953;45.930;13.640;2023-06-14T06:27:00;10;9;
32503;PMS5003;18953;45.930;13.640;2023-06-14T06:32:16;10;9;
32503;PMS5003;18953;45.930;13.640;2023-06-14T06:37:32;9;8;
32503;PMS5003;18953;45.930;13.640;2023-06-14T06:42:49;9;9;
32503;PMS5003;18953;45.930;13.640;2023-06-14T06:48:05;8;7;
32503;PMS5003;18953;45.930;13.640;2023-06-14T06:53:23;9;9;
32503;PMS5003;18953;45.930;13.640;2023-06-14T06:58:39;9;9;
32503;PMS5003;18953;45.930;13.640;2023-06-14T07:03:55;7;7;
32503;PMS5003;18953;45.930;13.640;2023-06-14T07:09:12;12;11;
32503;PMS5003;18953;45.930;13.640;2023-06-14T07:14:28;10;9;
32503;PMS5003;18953;45.930;13.640;2023-06-14T07:19:44;8;8;
32503;PMS5003;18953;45.930;13.640;2023-06-14T07:25:01;9;9;
32503;PMS5003;18953;45.930;13.640;2023-06-14T07:30:17;8;8;
32503;PMS5003;18953;45.930;13.640;2023-06-14T07:35:33;7;7;
32503;PMS5003;18953;45.930;13.640;2023-06-14T07:40:50;14;11;
32503;PMS5003;18953;45.930;13.640;2023-06-14T07:46:06;8;8;
32503;PMS5003;18953;45.930;13.640;2023-06-14T07:51:22;7;7;
32503;PMS5003;18953;45.930;13.640;2023-06-14T07:56:39;9;9;
32503;PMS5003;18953;45.930;13.640;2023-06-14T08:01:55;9;9;
32503;PMS5003;18953;45.930;13.640;2023-06-14T08:07:11;7;7;
32503;PMS5003;18953;45.930;13.640;2023-06-14T08:12:28;9;8;
32503;PMS5003;18953;45.930;13.640;2023-06-14T08:17:44;10;9;
32503;PMS5003;18953;45.930;13.640;2023-06-14T08:23:01;8;7;
32503;PMS5003;18953;45.930;13.640;2023-06-14T08:28:16;8;8;
32503;PMS5003;18953;45.930;13.640;2023-06-14T08:33:33;8;7;
32503;PMS5003;18953;45.930;13.640;2023-06-14T08:38:49;9;9;
32503;PMS5003;18953;45.930;13.640;2023-06-14T08:44:05;9;8;
32503;PMS5003;18953;45.930;13.640;2023-06-14T08:49:22;10;8;
32503;PMS5003;18953;45.930;13.640;2023-06-14T08:54:38;9;8;
32503;PMS5003;18953;45.930;13.640;2023-06-14T08:59:54;10;10;
32503;PMS5003;18953;45.930;13.640;2023-06-14T09:05:11;8;8;
32503;PMS5003;18953;45.930;13.640;2023-06-14T09:10:27;9;9;
32503;PMS5003;18953;45.930;13.640;2023-06-14T09:15:44;9;8;
32503;PMS5003;18953;45.930;13.640;2023-06-14T09:21:00;8;8;
32503;PMS5003;18953;45.930;13.640;2023-06-14T09:26:17;9;8;
32503;PMS5003;18953;45.930;13.640;2023-06-14T09:31:32;10;9;
32503;PMS5003;18953;45.930;13.640;2023-06-14T09:36:49;9;8;
32503;PMS5003;18953;45.930;13.640;2023-06-14T09:42:07;8;8;
32503;PMS5003;18953;45.930;13.640;2023-06-14T09:47:22;9;9;
32503;PMS5003;18953;45.930;13.640;2023-06-14T09:52:38;9;8;
32503;PMS5003;18953;45.930;13.640;2023-06-14T09:57:54;8;8;
32503;PMS5003;18953;45.930;13.640;2023-06-14T10:03:12;7;7;
32503;PMS5003;18953;45.930;13.640;2023-06-14T10:08:27;10;9;
32503;PMS5003;18953;45.930;13.640;2023-06-14T10:13:43;8;6;
32503;PMS5003;18953;45.930;13.640;2023-06-14T10:19:00;8;8;
32503;PMS5003;18953;45.930;13.640;2023-06-14T10:24:16;7;7;
32503;PMS5003;18953;45.930;13.640;2023-06-14T10:29:31;7;7;
32503;PMS5003;18953;45.930;13.640;2023-06-14T10:34:52;8;7;
32503;PMS5003;18953;45.930;13.640;2023-06-14T10:40:04;8;7;
32503;PMS5003;18953;45.930;13.640;2023-06-14T10:45:20;8;8;
32503;PMS5003;18953;45.930;13.640;2023-06-14T10:50:36;8;8;
32503;PMS5003;18953;45.930;13.640;2023-06-14T10:55:53;6;6;
32503;PMS5003;18953;45.930;13.640;2023-06-14T11:01:09;8;7;
32503;PMS5003;18953;45.930;13.640;2023-06-14T11:06:25;8;7;
32503;PMS5003;18953;45.930;13.640;2023-06-14T11:11:42;6;6;
32503;PMS5003;18953;45.930;13.640;2023-06-14T11:16:58;7;7;
32503;PMS5003;18953;45.930;13.640;2023-06-14T11:22:14;7;6;
32503;PMS5003;18953;45.930;13.640;2023-06-14T11:27:32;8;8;
32503;PMS5003;18953;45.930;13.640;2023-06-14T11:32:48;6;6;
32503;PMS5003;18953;45.930;13.640;2023-06-14T11:38:04;8;8;
32503;PMS5003;18953;45.930;13.640;2023-06-14T11:43:20;8;8;
32503;PMS5003;18953;45.930;13.640;2023-06-14T11:48:36;7;7;
32503;PMS5003;18953;45.930;13.640;2023-06-14T11:53:52;9;8;
32503;PMS5003;18953;45.930;13.640;2023-06-14T11:59:09;8;8;
32503;PMS5003;18953;45.930;13.640;2023-06-14T12:04:26;7;6;
32503;PMS5003;18953;45.930;13.640;2023-06-14T12:09:41;8;8;
32503;PMS5003;18953;45.930;13.640;2023-06-14T12:14:57;8;8;
32503;PMS5003;18953;45.930;13.640;2023-06-14T12:20:14;8;7;
32503;PMS5003;18953;45.930;13.640;2023-06-14T12:25:30;8;7;
32503;PMS5003;18953;45.930;13.640;2023-06-14T12:30:46;7;7;
32503;PMS5003;18953;45.930;13.640;2023-06-14T12:36:03;6;6;
32503;PMS5003;18953;45.930;13.640;2023-06-14T12:41:19;8;8;
32503;PMS5003;18953;45.930;13.640;2023-06-14T12:46:36;13;13;
32503;PMS5003;18953;45.930;13.640;2023-06-14T12:51:52;7;6;
32503;PMS5003;18953;45.930;13.640;2023-06-14T12:57:08;8;8;
32503;PMS5003;18953;45.930;13.640;2023-06-14T13:02:24;12;11;
32503;PMS5003;18953;45.930;13.640;2023-06-14T13:07:40;8;8;
32503;PMS5003;18953;45.930;13.640;2023-06-14T13:12:57;7;7;
32503;PMS5003;18953;45.930;13.640;2023-06-14T13:18:13;8;7;
32503;PMS5003;18953;45.930;13.640;2023-06-14T13:23:29;8;7;
32503;PMS5003;18953;45.930;13.640;2023-06-14T13:28:46;8;8;
32503;PMS5003;18953;45.930;13.640;2023-06-14T13:34:02;9;7;
32503;PMS5003;18953;45.930;13.640;2023-06-14T13:39:18;9;8;
32503;PMS5003;18953;45.930;13.640;2023-06-14T13:44:34;9;8;
32503;PMS5003;18953;45.930;13.640;2023-06-14T13:49:51;8;6;
32503;PMS5003;18953;45.930;13.640;2023-06-14T13:55:07;8;8;
32503;PMS5003;18953;45.930;13.640;2023-06-14T14:00:23;9;8;
32503;PMS5003;18953;45.930;13.640;2023-06-14T14:05:40;9;9;
32503;PMS5003;18953;45.930;13.640;2023-06-14T14:10:56;10;10;
32503;PMS5003;18953;45.930;13.640;2023-06-14T14:16:12;11;9;
32503;PMS5003;18953;45.930;13.640;2023-06-14T14:21:28;13;12;
32503;PMS5003;18953;45.930;13.640;2023-06-14T14:26:45;11;10;
32503;PMS5003;18953;45.930;13.640;2023-06-14T14:32:01;12;11;
32503;PMS5003;18953;45.930;13.640;2023-06-14T14:37:17;8;8;
32503;PMS5003;18953;45.930;13.640;2023-06-14T14:42:34;12;11;
32503;PMS5003;18953;45.930;13.640;2023-06-14T14:47:50;12;11;
32503;PMS5003;18953;45.930;13.640;2023-06-14T14:53:06;11;11;
32503;PMS5003;18953;45.930;13.640;2023-06-14T14:58:23;11;11;
32503;PMS5003;18953;45.930;13.640;2023-06-14T15:03:39;13;12;
32503;PMS5003;18953;45.930;13.640;2023-06-14T15:08:55;12;10;
32503;PMS5003;18953;45.930;13.640;2023-06-14T15:14:12;13;13;
32503;PMS5003;18953;45.930;13.640;2023-06-14T15:19:28;11;11;
32503;PMS5003;18953;45.930;13.640;2023-06-14T15:24:44;12;12;
32503;PMS5003;18953;45.930;13.640;2023-06-14T15:30:01;12;12;
32503;PMS5003;18953;45.930;13.640;2023-06-14T15:35:17;12;11;
32503;PMS5003;18953;45.930;13.640;2023-06-14T15:40:33;12;11;
32503;PMS5003;18953;45.930;13.640;2023-06-14T15:45:50;16;16;
32503;PMS5003;18953;45.930;13.640;2023-06-14T15:51:06;13;13;
32503;PMS5003;18953;45.930;13.640;2023-06-14T15:56:22;18;18;
32503;PMS5003;18953;45.930;13.640;2023-06-14T16:01:38;14;14;
32503;PMS5003;18953;45.930;13.640;2023-06-14T16:06:55;14;12;
32503;PMS5003;18953;45.930;13.640;2023-06-14T16:12:11;16;14;
32503;PMS5003;18953;45.930;13.640;2023-06-14T16:17:27;15;13;
32503;PMS5003;18953;45.930;13.640;2023-06-14T16:22:45;12;11;
32503;PMS5003;18953;45.930;13.640;2023-06-14T16:28:00;21;21;
32503;PMS5003;18953;45.930;13.640;2023-06-14T16:33:16;13;13;
32503;PMS5003;18953;45.930;13.640;2023-06-14T16:38:33;12;12;
32503;PMS5003;18953;45.930;13.640;2023-06-14T16:43:49;16;15;
32503;PMS5003;18953;45.930;13.640;2023-06-14T16:49:06;19;17;
32503;PMS5003;18953;45.930;13.640;2023-06-14T16:54:22;15;14;
32503;PMS5003;18953;45.930;13.640;2023-06-14T16:59:38;16;15;
32503;PMS5003;18953;45.930;13.640;2023-06-14T17:04:54;15;15;
32503;PMS5003;18953;45.930;13.640;2023-06-14T17:10:11;13;13;
32503;PMS5003;18953;45.930;13.640;2023-06-14T17:15:27;15;15;
32503;PMS5003;18953;45.930;13.640;2023-06-14T17:20:44;16;15;
32503;PMS5003;18953;45.930;13.640;2023-06-14T17:26:00;17;14;
32503;PMS5003;18953;45.930;13.640;2023-06-14T17:31:16;14;14;
32503;PMS5003;18953;45.930;13.640;2023-06-14T17:36:32;16;16;
32503;PMS5003;18953;45.930;13.640;2023-06-14T17:41:49;17;17;
32503;PMS5003;18953;45.930;13.640;2023-06-14T17:47:05;14;13;
32503;PMS5003;18953;45.930;13.640;2023-06-14T17:52:22;11;10;
32503;PMS5003;18953;45.930;13.640;2023-06-14T17:57:38;8;8;
32503;PMS5003;18953;45.930;13.640;2023-06-14T18:02:54;9;8;
32503;PMS5003;18953;45.930;13.640;2023-06-14T18:08:11;10;10;
32503;PMS5003;18953;45.930;13.640;2023-06-14T18:13:27;13;11;
32503;PMS5003;18953;45.930;13.640;2023-06-14T18:18:43;11;10;
32503;PMS5003;18953;45.930;13.640;2023-06-14T18:23:59;12;11;
32503;PMS5003;18953;45.930;13.640;2023-06-14T18:29:16;10;10;
32503;PMS5003;18953;45.930;13.640;2023-06-14T18:34:32;11;10;
32503;PMS5003;18953;45.930;13.640;2023-06-14T18:39:48;14;12;
32503;PMS5003;18953;45.930;13.640;2023-06-14T18:45:05;15;15;
32503;PMS5003;18953;45.930;13.640;2023-06-14T18:50:21;14;13;
32503;PMS5003;18953;45.930;13.640;2023-06-14T18:55:37;13;12;
32503;PMS5003;18953;45.930;13.640;2023-06-14T19:00:54;15;14;
32503;PMS5003;18953;45.930;13.640;2023-06-14T19:06:10;13;13;
32503;PMS5003;18953;45.930;13.640;2023-06-14T19:11:27;15;14;
32503;PMS5003;18953;45.930;13.640;2023-06-14T19:16:43;15;15;
32503;PMS5003;18953;45.930;13.640;2023-06-14T19:21:59;14;14;
32503;PMS5003;18953;45.930;13.640;2023-06-14T19:27:16;17;16;
32503;PMS5003;18953;45.930;13.640;2023-06-14T19:32:32;27;25;
32503;PMS5003;18953;45.930;13.640;2023-06-14T19:37:48;26;24;
32503;PMS5003;18953;45.930;13.640;2023-06-14T19:43:06;18;17;
32503;PMS5003;18953;45.930;13.640;2023-06-14T19:48:21;15;15;
32503;PMS5003;18953;45.930;13.640;2023-06-14T19:53:37;21;19;
32503;PMS5003;18953;45.930;13.640;2023-06-14T19:58:54;14;14;
32503;PMS5003;18953;45.930;13.640;2023-06-14T20:04:10;18;17;
32503;PMS5003;18953;45.930;13.640;2023-06-14T20:09:27;19;18;
32503;PMS5003;18953;45.930;13.640;2023-06-14T20:14:43;18;17;
32503;PMS5003;18953;45.930;13.640;2023-06-14T20:19:59;17;16;
32503;PMS5003;18953;45.930;13.640;2023-06-14T20:25:16;18;17;
32503;PMS5003;18953;45.930;13.640;2023-06-14T20:30:32;22;21;
32503;PMS5003;18953;45.930;13.640;2023-06-14T20:35:48;17;16;
32503;PMS5003;18953;45.930;13.640;2023-06-14T20:41:05;16;16;
32503;PMS5003;18953;45.930;13.640;2023-06-14T20:46:21;20;17;
32503;PMS5003;18953;45.930;13.640;2023-06-14T20:51:38;19;18;
32503;PMS5003;18953;45.930;13.640;2023-06-14T20:56:54;18;16;
32503;PMS5003;18953;45.930;13.640;2023-06-14T21:02:10;18;16;
32503;PMS5003;18953;45.930;13.640;2023-06-14T21:07:27;20;15;
32503;PMS5003;18953;45.930;13.640;2023-06-14T21:12:43;18;17;
32503;PMS5003;18953;45.930;13.640;2023-06-14T21:17:59;19;19;
32503;PMS5003;18953;45.930;13.640;2023-06-14T21:23:16;16;16;
32503;PMS5003;18953;45.930;13.640;2023-06-14T21:28:32;18;18;
32503;PMS5003;18953;45.930;13.640;2023-06-14T21:33:49;20;18;
32503;PMS5003;18953;45.930;13.640;2023-06-14T21:39:05;22;21;
32503;PMS5003;18953;45.930;13.640;2023-06-14T21:44:21;18;16;
32503;PMS5003;18953;45.930;13.640;2023-06-14T21:49:38;19;18;
32503;PMS5003;18953;45.930;13.640;2023-06-14T21:54:54;21;20;
32503;PMS5003;18953;45.930;13.640;2023-06-14T22:00:11;18;17;
32503;PMS5003;18953;45.930;13.640;2023-06-14T22:05:27;17;17;
32503;PMS5003;18953;45.930;13.640;2023-06-14T22:10:43;15;15;
32503;PMS5003;18953;45.930;13.640;2023-06-14T22:16:00;15;14;
32503;PMS5003;18953;45.930;13.640;2023-06-14T22:21:16;16;15;
32503;PMS5003;18953;45.930;13.640;2023-06-14T22:26:34;14;14;
32503;PMS5003;18953;45.930;13.640;2023-06-14T22:31:49;16;16;
32503;PMS5003;18953;45.930;13.640;2023-06-14T22:37:05;18;16;
32503;PMS5003;18953;45.930;13.640;2023-06-14T22:42:21;16;16;
32503;PMS5003;18953;45.930;13.640;2023-06-14T22:47:39;18;17;
32503;PMS5003;18953;45.930;13.640;2023-06-14T22:52:54;20;18;
32503;PMS5003;18953;45.930;13.640;2023-06-14T22:58:11;20;18;
32503;PMS5003;18953;45.930;13.640;2023-06-14T23:03:28;18;17;
32503;PMS5003;18953;45.930;13.640;2023-06-14T23:08:43;21;20;
32503;PMS5003;18953;45.930;13.640;2023-06-14T23:14:00;20;18;
32503;PMS5003;18953;45.930;13.640;2023-06-14T23:19:16;18;18;
32503;PMS5003;18953;45.930;13.640;2023-06-14T23:24:32;19;17;
32503;PMS5003;18953;45.930;13.640;2023-06-14T23:29:49;19;18;
32503;PMS5003;18953;45.930;13.640;2023-06-14T23:35:06;17;16;
32503;PMS5003;18953;45.930;13.640;2023-06-14T23:40:22;15;15;
32503;PMS5003;18953;45.930;13.640;2023-06-14T23:45:39;17;16;
32503;PMS5003;18953;45.930;13.640;2023-06-14T23:50:55;17;15;
32503;PMS5003;18953;45.930;13.640;2023-06-14T23:56:12;19;17;
